sensor_id;sensor_type;location;lat;lon;timestamp;pressure;altitude;pressure_sealevel;temperature;humidity
17521;BME280;8878;-33.370;-70.552;2023-04-27T00:00:16;92112.06;;;20.63;47.53
17521;BME280;8878;-33.370;-70.552;2023-04-27T00:02:46;92113.97;;;20.62;47.31
17521;BME280;8878;-33.370;-70.552;2023-04-27T00:05:16;92114.38;;;20.52;46.67
17521;BME280;8878;-33.370;-70.552;2023-04-27T00:07:47;92115.47;;;20.51;46.67
17521;BME280;8878;-33.370;-70.552;2023-04-27T00:10:18;92115.16;;;20.53;47.19
17521;BME280;8878;-33.370;-70.552;2023-04-27T00:12:47;92107.50;;;20.43;48.41
17521;BME280;8878;-33.370;-70.552;2023-04-27T00:15:17;92111.75;;;20.44;48.06
17521;BME280;8878;-33.370;-70.552;2023-04-27T00:17:46;92099.72;;;20.50;48.07
17521;BME280;8878;-33.370;-70.552;2023-04-27T00:20:16;92106.59;;;20.59;47.78
17521;BME280;8878;-33.370;-70.552;2023-04-27T00:22:48;92095.66;;;20.64;46.35
17521;BME280;8878;-33.370;-70.552;2023-04-27T00:25:17;92105.28;;;20.65;47.52
17521;BME280;8878;-33.370;-70.552;2023-04-27T00:27:47;92097.03;;;20.50;46.87
17521;BME280;8878;-33.370;-70.552;2023-04-27T00:30:17;92102.97;;;20.35;46.49
17521;BME280;8878;-33.370;-70.552;2023-04-27T00:32:47;92102.97;;;20.05;46.53
17521;BME280;8878;-33.370;-70.552;2023-04-27T00:35:17;92106.06;;;19.95;46.93
17521;BME280;8878;-33.370;-70.552;2023-04-27T00:37:48;92110.84;;;19.81;46.90
17521;BME280;8878;-33.370;-70.552;2023-04-27T00:40:20;92109.47;;;19.75;46.60
17521;BME280;8878;-33.370;-70.552;2023-04-27T00:42:49;92110.38;;;19.79;46.31
17521;BME280;8878;-33.370;-70.552;2023-04-27T00:45:19;92114.66;;;19.71;46.37
17521;BME280;8878;-33.370;-70.552;2023-04-27T00:47:48;92106.13;;;19.78;46.08
17521;BME280;8878;-33.370;-70.552;2023-04-27T00:50:22;92102.34;;;19.79;46.08
17521;BME280;8878;-33.370;-70.552;2023-04-27T00:52:58;92097.88;;;19.91;45.67
17521;BME280;8878;-33.370;-70.552;2023-04-27T00:55:29;92090.56;;;19.71;45.82
17521;BME280;8878;-33.370;-70.552;2023-04-27T00:57:58;92101.78;;;19.65;46.04
17521;BME280;8878;-33.370;-70.552;2023-04-27T01:00:28;92094.28;;;19.49;45.91
17521;BME280;8878;-33.370;-70.552;2023-04-27T01:02:58;92102.31;;;19.49;45.91
17521;BME280;8878;-33.370;-70.552;2023-04-27T01:05:28;92099.44;;;19.63;45.30
17521;BME280;8878;-33.370;-70.552;2023-04-27T01:08:00;92105.94;;;19.53;45.63
17521;BME280;8878;-33.370;-70.552;2023-04-27T01:10:29;92102.13;;;19.54;44.66
17521;BME280;8878;-33.370;-70.552;2023-04-27T01:12:59;92103.19;;;19.71;44.08
17521;BME280;8878;-33.370;-70.552;2023-04-27T01:15:29;92110.31;;;19.58;44.37
17521;BME280;8878;-33.370;-70.552;2023-04-27T01:17:59;92108.94;;;19.35;44.78
17521;BME280;8878;-33.370;-70.552;2023-04-27T01:20:28;92113.50;;;19.34;44.54
17521;BME280;8878;-33.370;-70.552;2023-04-27T01:23:00;92120.06;;;19.63;44.38
17521;BME280;8878;-33.370;-70.552;2023-04-27T01:25:31;92122.09;;;19.66;44.31
17521;BME280;8878;-33.370;-70.552;2023-04-27T01:28:00;92117.22;;;19.68;44.98
17521;BME280;8878;-33.370;-70.552;2023-04-27T01:30:30;92117.81;;;19.73;45.33
17521;BME280;8878;-33.370;-70.552;2023-04-27T01:33:00;92131.69;;;19.67;45.36
17521;BME280;8878;-33.370;-70.552;2023-04-27T01:35:30;92120.72;;;19.60;45.60
17521;BME280;8878;-33.370;-70.552;2023-04-27T01:37:59;92119.63;;;19.52;46.48
17521;BME280;8878;-33.370;-70.552;2023-04-27T01:40:31;92121.72;;;19.46;46.52
17521;BME280;8878;-33.370;-70.552;2023-04-27T01:43:00;92124.97;;;19.43;46.52
17521;BME280;8878;-33.370;-70.552;2023-04-27T01:45:29;92125.31;;;19.33;46.44
17521;BME280;8878;-33.370;-70.552;2023-04-27T01:47:59;92115.28;;;19.30;46.81
17521;BME280;8878;-33.370;-70.552;2023-04-27T01:50:29;92122.50;;;19.30;47.03
17521;BME280;8878;-33.370;-70.552;2023-04-27T01:53:00;92125.19;;;19.21;47.23
17521;BME280;8878;-33.370;-70.552;2023-04-27T01:55:31;92119.09;;;19.12;47.38
17521;BME280;8878;-33.370;-70.552;2023-04-27T01:58:01;92120.66;;;19.04;47.95
17521;BME280;8878;-33.370;-70.552;2023-04-27T02:00:31;92127.94;;;18.95;47.98
17521;BME280;8878;-33.370;-70.552;2023-04-27T02:03:01;92117.06;;;19.00;47.13
17521;BME280;8878;-33.370;-70.552;2023-04-27T02:05:30;92123.53;;;18.91;48.02
17521;BME280;8878;-33.370;-70.552;2023-04-27T02:08:00;92125.41;;;18.90;47.94
17521;BME280;8878;-33.370;-70.552;2023-04-27T02:10:31;92124.47;;;18.86;47.96
17521;BME280;8878;-33.370;-70.552;2023-04-27T02:13:01;92119.31;;;18.81;47.93
17521;BME280;8878;-33.370;-70.552;2023-04-27T02:15:30;92118.03;;;18.78;47.82
17521;BME280;8878;-33.370;-70.552;2023-04-27T02:18:01;92119.31;;;18.72;47.86
17521;BME280;8878;-33.370;-70.552;2023-04-27T02:20:31;92113.00;;;18.77;48.06
17521;BME280;8878;-33.370;-70.552;2023-04-27T02:23:01;92106.88;;;18.76;47.30
17521;BME280;8878;-33.370;-70.552;2023-04-27T02:25:35;92104.38;;;18.71;47.46
17521;BME280;8878;-33.370;-70.552;2023-04-27T02:28:08;92108.78;;;18.67;47.86
17521;BME280;8878;-33.370;-70.552;2023-04-27T02:30:38;92107.38;;;18.61;48.00
17521;BME280;8878;-33.370;-70.552;2023-04-27T02:33:08;92104.06;;;18.64;48.11
17521;BME280;8878;-33.370;-70.552;2023-04-27T02:35:37;92114.13;;;18.59;48.46
17521;BME280;8878;-33.370;-70.552;2023-04-27T02:38:07;92103.72;;;18.49;48.66
17521;BME280;8878;-33.370;-70.552;2023-04-27T02:40:39;92119.13;;;18.52;48.88
17521;BME280;8878;-33.370;-70.552;2023-04-27T02:43:08;92102.94;;;18.48;48.82
17521;BME280;8878;-33.370;-70.552;2023-04-27T02:45:37;92099.47;;;18.48;48.71
17521;BME280;8878;-33.370;-70.552;2023-04-27T02:48:07;92113.94;;;18.38;49.00
17521;BME280;8878;-33.370;-70.552;2023-04-27T02:50:40;92107.97;;;18.41;48.73
17521;BME280;8878;-33.370;-70.552;2023-04-27T02:53:10;92106.72;;;18.47;48.23
17521;BME280;8878;-33.370;-70.552;2023-04-27T02:55:45;92112.38;;;18.37;48.39
17521;BME280;8878;-33.370;-70.552;2023-04-27T02:58:15;92113.31;;;18.32;48.92
17521;BME280;8878;-33.370;-70.552;2023-04-27T03:00:46;92110.78;;;18.36;48.11
17521;BME280;8878;-33.370;-70.552;2023-04-27T03:03:16;92116.78;;;18.33;48.12
17521;BME280;8878;-33.370;-70.552;2023-04-27T03:05:45;92114.88;;;18.42;47.54
17521;BME280;8878;-33.370;-70.552;2023-04-27T03:08:14;92118.03;;;18.44;47.29
17521;BME280;8878;-33.370;-70.552;2023-04-27T03:10:45;92119.75;;;18.49;47.25
17521;BME280;8878;-33.370;-70.552;2023-04-27T03:13:15;92114.09;;;18.50;47.73
17521;BME280;8878;-33.370;-70.552;2023-04-27T03:15:44;92124.78;;;18.50;48.19
17521;BME280;8878;-33.370;-70.552;2023-04-27T03:18:13;92115.66;;;18.51;48.32
17521;BME280;8878;-33.370;-70.552;2023-04-27T03:20:43;92126.34;;;18.43;48.66
17521;BME280;8878;-33.370;-70.552;2023-04-27T03:23:12;92127.00;;;18.39;48.97
17521;BME280;8878;-33.370;-70.552;2023-04-27T03:25:42;92120.53;;;18.32;49.11
17521;BME280;8878;-33.370;-70.552;2023-04-27T03:28:13;92112.66;;;18.27;49.31
17521;BME280;8878;-33.370;-70.552;2023-04-27T03:30:42;92119.13;;;18.17;49.39
17521;BME280;8878;-33.370;-70.552;2023-04-27T03:33:12;92120.38;;;18.11;48.64
17521;BME280;8878;-33.370;-70.552;2023-04-27T03:35:41;92118.16;;;18.13;48.43
17521;BME280;8878;-33.370;-70.552;2023-04-27T03:38:10;92113.59;;;18.14;49.24
17521;BME280;8878;-33.370;-70.552;2023-04-27T03:40:40;92117.88;;;18.23;48.89
17521;BME280;8878;-33.370;-70.552;2023-04-27T03:43:11;92113.91;;;18.21;48.67
17521;BME280;8878;-33.370;-70.552;2023-04-27T03:45:40;92113.47;;;18.19;48.50
17521;BME280;8878;-33.370;-70.552;2023-04-27T03:48:10;92113.00;;;18.17;47.93
17521;BME280;8878;-33.370;-70.552;2023-04-27T03:50:40;92115.78;;;18.12;48.61
17521;BME280;8878;-33.370;-70.552;2023-04-27T03:53:09;92118.00;;;18.10;48.13
17521;BME280;8878;-33.370;-70.552;2023-04-27T03:55:39;92120.19;;;18.08;48.08
17521;BME280;8878;-33.370;-70.552;2023-04-27T03:58:08;92121.59;;;18.05;48.48
17521;BME280;8878;-33.370;-70.552;2023-04-27T04:00:40;92129.13;;;17.94;48.72
17521;BME280;8878;-33.370;-70.552;2023-04-27T04:03:09;92122.69;;;17.95;47.96
17521;BME280;8878;-33.370;-70.552;2023-04-27T04:05:39;92131.16;;;17.97;47.80
17521;BME280;8878;-33.370;-70.552;2023-04-27T04:08:08;92126.28;;;17.99;48.20
17521;BME280;8878;-33.370;-70.552;2023-04-27T04:10:37;92129.75;;;18.00;48.18
17521;BME280;8878;-33.370;-70.552;2023-04-27T04:13:07;92127.81;;;17.83;48.54
17521;BME280;8878;-33.370;-70.552;2023-04-27T04:15:37;92127.38;;;17.81;48.51
17521;BME280;8878;-33.370;-70.552;2023-04-27T04:18:08;92132.06;;;17.84;48.63
17521;BME280;8878;-33.370;-70.552;2023-04-27T04:20:37;92134.69;;;17.67;48.83
17521;BME280;8878;-33.370;-70.552;2023-04-27T04:23:07;92134.22;;;17.65;49.22
17521;BME280;8878;-33.370;-70.552;2023-04-27T04:25:37;92133.59;;;17.68;48.65
17521;BME280;8878;-33.370;-70.552;2023-04-27T04:28:07;92144.72;;;17.70;48.95
17521;BME280;8878;-33.370;-70.552;2023-04-27T04:30:36;92134.22;;;17.65;49.41
17521;BME280;8878;-33.370;-70.552;2023-04-27T04:33:08;92144.41;;;17.63;49.24
17521;BME280;8878;-33.370;-70.552;2023-04-27T04:35:37;92145.81;;;17.69;48.79
17521;BME280;8878;-33.370;-70.552;2023-04-27T04:38:07;92142.06;;;17.70;48.73
17521;BME280;8878;-33.370;-70.552;2023-04-27T04:40:38;92140.69;;;17.73;48.23
17521;BME280;8878;-33.370;-70.552;2023-04-27T04:43:08;92141.94;;;17.75;48.85
17521;BME280;8878;-33.370;-70.552;2023-04-27T04:45:38;92143.00;;;17.66;48.87
17521;BME280;8878;-33.370;-70.552;2023-04-27T04:48:09;92140.25;;;17.57;49.28
17521;BME280;8878;-33.370;-70.552;2023-04-27T04:50:39;92142.00;;;17.53;49.88
17521;BME280;8878;-33.370;-70.552;2023-04-27T04:53:09;92143.56;;;17.54;50.17
17521;BME280;8878;-33.370;-70.552;2023-04-27T04:55:38;92142.59;;;17.50;50.38
17521;BME280;8878;-33.370;-70.552;2023-04-27T04:58:08;92142.00;;;17.53;50.34
17521;BME280;8878;-33.370;-70.552;2023-04-27T05:00:37;92144.16;;;17.51;50.70
17521;BME280;8878;-33.370;-70.552;2023-04-27T05:03:10;92146.19;;;17.45;50.74
17521;BME280;8878;-33.370;-70.552;2023-04-27T05:05:39;92135.69;;;17.49;50.94
17521;BME280;8878;-33.370;-70.552;2023-04-27T05:08:08;92150.09;;;17.48;51.43
17521;BME280;8878;-33.370;-70.552;2023-04-27T05:10:38;92148.81;;;17.37;51.81
17521;BME280;8878;-33.370;-70.552;2023-04-27T05:13:07;92147.41;;;17.39;51.61
17521;BME280;8878;-33.370;-70.552;2023-04-27T05:15:37;92147.78;;;17.46;52.03
17521;BME280;8878;-33.370;-70.552;2023-04-27T05:18:08;92148.22;;;17.48;52.23
17521;BME280;8878;-33.370;-70.552;2023-04-27T05:20:38;92151.88;;;17.52;52.51
17521;BME280;8878;-33.370;-70.552;2023-04-27T05:23:07;92148.06;;;17.45;52.96
17521;BME280;8878;-33.370;-70.552;2023-04-27T05:25:38;92158.44;;;17.46;53.11
17521;BME280;8878;-33.370;-70.552;2023-04-27T05:28:09;92159.38;;;17.50;52.86
17521;BME280;8878;-33.370;-70.552;2023-04-27T05:30:39;92164.56;;;17.47;52.96
17521;BME280;8878;-33.370;-70.552;2023-04-27T05:33:11;92162.69;;;17.47;53.21
17521;BME280;8878;-33.370;-70.552;2023-04-27T05:35:41;92161.75;;;17.52;52.88
17521;BME280;8878;-33.370;-70.552;2023-04-27T05:38:10;92163.19;;;17.58;52.98
17521;BME280;8878;-33.370;-70.552;2023-04-27T05:40:43;92165.19;;;17.75;52.26
17521;BME280;8878;-33.370;-70.552;2023-04-27T05:43:12;92169.72;;;17.74;52.99
17521;BME280;8878;-33.370;-70.552;2023-04-27T05:45:42;92167.41;;;17.81;52.81
17521;BME280;8878;-33.370;-70.552;2023-04-27T05:48:13;92178.38;;;17.80;53.18
17521;BME280;8878;-33.370;-70.552;2023-04-27T05:50:42;92176.63;;;17.75;52.77
17521;BME280;8878;-33.370;-70.552;2023-04-27T05:53:12;92172.91;;;17.54;53.48
17521;BME280;8878;-33.370;-70.552;2023-04-27T05:55:42;92165.47;;;17.42;53.88
17521;BME280;8878;-33.370;-70.552;2023-04-27T05:58:11;92175.97;;;17.39;53.98
17521;BME280;8878;-33.370;-70.552;2023-04-27T06:00:41;92173.84;;;17.27;54.32
17521;BME280;8878;-33.370;-70.552;2023-04-27T06:03:12;92166.03;;;17.31;54.02
17521;BME280;8878;-33.370;-70.552;2023-04-27T06:05:42;92166.53;;;17.33;53.98
17521;BME280;8878;-33.370;-70.552;2023-04-27T06:08:11;92174.03;;;17.31;53.98
17521;BME280;8878;-33.370;-70.552;2023-04-27T06:10:41;92175.72;;;17.27;54.00
17521;BME280;8878;-33.370;-70.552;2023-04-27T06:13:11;92165.69;;;17.23;54.16
17521;BME280;8878;-33.370;-70.552;2023-04-27T06:15:40;92172.84;;;17.14;54.45
17521;BME280;8878;-33.370;-70.552;2023-04-27T06:18:10;92177.94;;;17.02;54.57
17521;BME280;8878;-33.370;-70.552;2023-04-27T06:20:41;92169.28;;;16.97;54.80
17521;BME280;8878;-33.370;-70.552;2023-04-27T06:23:10;92176.88;;;17.03;54.46
17521;BME280;8878;-33.370;-70.552;2023-04-27T06:25:41;92167.66;;;17.09;53.92
17521;BME280;8878;-33.370;-70.552;2023-04-27T06:28:10;92164.97;;;17.09;54.12
17521;BME280;8878;-33.370;-70.552;2023-04-27T06:30:40;92166.56;;;17.10;53.92
17521;BME280;8878;-33.370;-70.552;2023-04-27T06:33:09;92174.06;;;17.08;53.83
17521;BME280;8878;-33.370;-70.552;2023-04-27T06:35:40;92161.47;;;17.00;53.69
17521;BME280;8878;-33.370;-70.552;2023-04-27T06:38:10;92166.94;;;16.95;53.40
17521;BME280;8878;-33.370;-70.552;2023-04-27T06:40:39;92166.56;;;16.88;53.46
17521;BME280;8878;-33.370;-70.552;2023-04-27T06:43:09;92176.81;;;16.59;53.79
17521;BME280;8878;-33.370;-70.552;2023-04-27T06:45:38;92170.03;;;16.53;53.58
17521;BME280;8878;-33.370;-70.552;2023-04-27T06:48:09;92177.03;;;16.49;53.70
17521;BME280;8878;-33.370;-70.552;2023-04-27T06:50:41;92178.03;;;16.53;53.14
17521;BME280;8878;-33.370;-70.552;2023-04-27T06:53:10;92174.84;;;16.51;53.20
17521;BME280;8878;-33.370;-70.552;2023-04-27T06:55:40;92176.16;;;16.53;52.74
17521;BME280;8878;-33.370;-70.552;2023-04-27T06:58:10;92180.31;;;16.45;52.62
17521;BME280;8878;-33.370;-70.552;2023-04-27T07:00:40;92178.66;;;16.36;52.81
17521;BME280;8878;-33.370;-70.552;2023-04-27T07:03:09;92178.69;;;16.22;53.22
17521;BME280;8878;-33.370;-70.552;2023-04-27T07:05:40;92175.13;;;16.27;53.12
17521;BME280;8878;-33.370;-70.552;2023-04-27T07:08:11;92173.63;;;16.34;52.91
17521;BME280;8878;-33.370;-70.552;2023-04-27T07:10:41;92177.94;;;16.44;52.63
17521;BME280;8878;-33.370;-70.552;2023-04-27T07:13:11;92175.56;;;16.42;52.99
17521;BME280;8878;-33.370;-70.552;2023-04-27T07:15:42;92167.78;;;16.46;52.99
17521;BME280;8878;-33.370;-70.552;2023-04-27T07:18:11;92159.97;;;16.50;53.35
17521;BME280;8878;-33.370;-70.552;2023-04-27T07:20:43;92170.94;;;16.34;53.60
17521;BME280;8878;-33.370;-70.552;2023-04-27T07:23:12;92164.50;;;16.13;54.09
17521;BME280;8878;-33.370;-70.552;2023-04-27T07:25:42;92154.16;;;16.12;54.48
17521;BME280;8878;-33.370;-70.552;2023-04-27T07:28:12;92144.00;;;16.14;54.54
17521;BME280;8878;-33.370;-70.552;2023-04-27T07:30:41;92136.22;;;16.17;54.40
17521;BME280;8878;-33.370;-70.552;2023-04-27T07:33:11;92136.09;;;16.22;53.95
17521;BME280;8878;-33.370;-70.552;2023-04-27T07:35:42;92123.81;;;16.13;53.54
17521;BME280;8878;-33.370;-70.552;2023-04-27T07:38:11;92126.47;;;16.13;51.70
17521;BME280;8878;-33.370;-70.552;2023-04-27T07:40:43;92109.38;;;15.91;50.83
17521;BME280;8878;-33.370;-70.552;2023-04-27T07:43:12;92096.47;;;16.21;50.50
17521;BME280;8878;-33.370;-70.552;2023-04-27T07:45:43;92087.59;;;16.25;50.05
17521;BME280;8878;-33.370;-70.552;2023-04-27T07:48:13;92085.03;;;16.20;50.53
17521;BME280;8878;-33.370;-70.552;2023-04-27T07:50:44;92074.78;;;16.14;50.26
17521;BME280;8878;-33.370;-70.552;2023-04-27T07:53:14;92072.03;;;15.83;51.13
17521;BME280;8878;-33.370;-70.552;2023-04-27T07:55:43;92067.19;;;15.85;50.93
17521;BME280;8878;-33.370;-70.552;2023-04-27T07:58:13;92061.50;;;15.78;51.18
17521;BME280;8878;-33.370;-70.552;2023-04-27T08:00:42;92060.91;;;15.81;51.34
17521;BME280;8878;-33.370;-70.552;2023-04-27T08:03:12;92059.94;;;15.77;50.85
17521;BME280;8878;-33.370;-70.552;2023-04-27T08:05:43;92061.09;;;15.71;51.91
17521;BME280;8878;-33.370;-70.552;2023-04-27T08:08:13;92058.03;;;16.13;50.55
17521;BME280;8878;-33.370;-70.552;2023-04-27T08:10:42;92058.28;;;16.03;51.11
17521;BME280;8878;-33.370;-70.552;2023-04-27T08:13:12;92063.16;;;15.87;50.96
17521;BME280;8878;-33.370;-70.552;2023-04-27T08:15:41;92065.25;;;15.77;52.74
17521;BME280;8878;-33.370;-70.552;2023-04-27T08:18:12;92066.81;;;15.50;55.94
17521;BME280;8878;-33.370;-70.552;2023-04-27T08:20:43;92091.41;;;15.97;54.68
17521;BME280;8878;-33.370;-70.552;2023-04-27T08:23:13;92093.63;;;15.68;55.59
17521;BME280;8878;-33.370;-70.552;2023-04-27T08:25:42;92115.19;;;15.52;56.15
17521;BME280;8878;-33.370;-70.552;2023-04-27T08:28:13;92129.25;;;15.39;57.17
17521;BME280;8878;-33.370;-70.552;2023-04-27T08:30:43;92143.91;;;15.23;59.80
17521;BME280;8878;-33.370;-70.552;2023-04-27T08:33:13;92162.09;;;15.02;61.51
17521;BME280;8878;-33.370;-70.552;2023-04-27T08:35:44;92175.78;;;15.09;62.03
17521;BME280;8878;-33.370;-70.552;2023-04-27T08:38:13;92174.69;;;15.10;62.22
17521;BME280;8878;-33.370;-70.552;2023-04-27T08:40:43;92190.91;;;14.95;62.75
17521;BME280;8878;-33.370;-70.552;2023-04-27T08:43:12;92196.31;;;14.90;63.56
17521;BME280;8878;-33.370;-70.552;2023-04-27T08:45:48;92199.81;;;14.85;65.44
17521;BME280;8878;-33.370;-70.552;2023-04-27T08:48:18;92206.69;;;14.86;65.46
17521;BME280;8878;-33.370;-70.552;2023-04-27T08:50:50;92217.31;;;14.86;66.58
17521;BME280;8878;-33.370;-70.552;2023-04-27T08:53:22;92214.03;;;15.27;65.72
17521;BME280;8878;-33.370;-70.552;2023-04-27T08:55:52;92202.56;;;15.59;64.97
17521;BME280;8878;-33.370;-70.552;2023-04-27T08:58:22;92187.91;;;15.61;63.26
17521;BME280;8878;-33.370;-70.552;2023-04-27T09:01:05;92180.91;;;15.79;62.67
17521;BME280;8878;-33.370;-70.552;2023-04-27T09:03:36;92181.69;;;15.80;62.37
17521;BME280;8878;-33.370;-70.552;2023-04-27T09:06:08;92166.41;;;15.85;61.83
17521;BME280;8878;-33.370;-70.552;2023-04-27T09:08:45;92155.00;;;15.57;61.79
17521;BME280;8878;-33.370;-70.552;2023-04-27T09:11:27;92148.38;;;15.41;62.51
17521;BME280;8878;-33.370;-70.552;2023-04-27T09:13:58;92132.44;;;15.41;62.72
17521;BME280;8878;-33.370;-70.552;2023-04-27T09:16:29;92120.38;;;15.16;61.76
17521;BME280;8878;-33.370;-70.552;2023-04-27T09:18:59;92111.91;;;15.28;60.66
17521;BME280;8878;-33.370;-70.552;2023-04-27T09:21:30;92114.41;;;15.38;59.53
17521;BME280;8878;-33.370;-70.552;2023-04-27T09:24:09;92110.19;;;15.64;58.63
17521;BME280;8878;-33.370;-70.552;2023-04-27T09:26:39;92103.28;;;15.63;58.28
17521;BME280;8878;-33.370;-70.552;2023-04-27T09:29:09;92113.53;;;15.84;58.42
17521;BME280;8878;-33.370;-70.552;2023-04-27T09:31:39;92117.25;;;15.83;58.45
17521;BME280;8878;-33.370;-70.552;2023-04-27T09:34:08;92122.66;;;15.78;58.94
17521;BME280;8878;-33.370;-70.552;2023-04-27T09:36:40;92130.34;;;15.93;58.90
17521;BME280;8878;-33.370;-70.552;2023-04-27T09:39:09;92125.41;;;16.00;58.59
17521;BME280;8878;-33.370;-70.552;2023-04-27T09:41:39;92135.56;;;15.98;59.02
17521;BME280;8878;-33.370;-70.552;2023-04-27T09:44:09;92138.16;;;15.76;60.24
17521;BME280;8878;-33.370;-70.552;2023-04-27T09:46:38;92139.09;;;15.52;62.21
17521;BME280;8878;-33.370;-70.552;2023-04-27T09:49:12;92124.06;;;15.61;62.09
17521;BME280;8878;-33.370;-70.552;2023-04-27T09:51:43;92119.50;;;15.21;63.55
17521;BME280;8878;-33.370;-70.552;2023-04-27T09:54:13;92122.72;;;14.91;63.62
17521;BME280;8878;-33.370;-70.552;2023-04-27T09:56:52;92129.13;;;15.03;63.36
17521;BME280;8878;-33.370;-70.552;2023-04-27T09:59:37;92133.09;;;15.19;62.32
17521;BME280;8878;-33.370;-70.552;2023-04-27T10:02:11;92124.63;;;15.17;62.27
17521;BME280;8878;-33.370;-70.552;2023-04-27T10:05:07;92131.97;;;15.07;62.55
17521;BME280;8878;-33.370;-70.552;2023-04-27T10:07:44;92131.31;;;15.42;61.90
17521;BME280;8878;-33.370;-70.552;2023-04-27T10:10:17;92123.78;;;15.63;61.06
17521;BME280;8878;-33.370;-70.552;2023-04-27T10:12:56;92124.47;;;15.69;60.87
17521;BME280;8878;-33.370;-70.552;2023-04-27T10:15:26;92121.97;;;15.86;60.64
17521;BME280;8878;-33.370;-70.552;2023-04-27T10:18:03;92117.34;;;15.78;60.01
17521;BME280;8878;-33.370;-70.552;2023-04-27T10:20:35;92127.13;;;15.82;60.32
17521;BME280;8878;-33.370;-70.552;2023-04-27T10:23:06;92132.03;;;15.89;60.40
17521;BME280;8878;-33.370;-70.552;2023-04-27T10:25:39;92138.44;;;15.88;60.08
17521;BME280;8878;-33.370;-70.552;2023-04-27T10:28:15;92143.06;;;15.82;60.20
17521;BME280;8878;-33.370;-70.552;2023-04-27T10:30:45;92152.31;;;15.85;59.44
17521;BME280;8878;-33.370;-70.552;2023-04-27T10:33:16;92144.84;;;15.73;59.55
17521;BME280;8878;-33.370;-70.552;2023-04-27T10:35:54;92151.34;;;15.53;59.80
17521;BME280;8878;-33.370;-70.552;2023-04-27T10:38:29;92150.78;;;15.70;59.69
17521;BME280;8878;-33.370;-70.552;2023-04-27T10:40:59;92148.97;;;15.65;59.39
17521;BME280;8878;-33.370;-70.552;2023-04-27T10:43:32;92154.91;;;15.62;59.15
17521;BME280;8878;-33.370;-70.552;2023-04-27T10:46:09;92152.28;;;15.44;60.39
17521;BME280;8878;-33.370;-70.552;2023-04-27T10:48:39;92132.81;;;15.48;60.96
17521;BME280;8878;-33.370;-70.552;2023-04-27T10:51:09;92130.59;;;15.55;61.53
17521;BME280;8878;-33.370;-70.552;2023-04-27T10:53:40;92113.06;;;15.54;60.45
17521;BME280;8878;-33.370;-70.552;2023-04-27T10:56:10;92106.41;;;15.52;61.28
17521;BME280;8878;-33.370;-70.552;2023-04-27T10:58:39;92094.22;;;15.37;61.25
17521;BME280;8878;-33.370;-70.552;2023-04-27T11:01:09;92090.88;;;15.45;61.36
17521;BME280;8878;-33.370;-70.552;2023-04-27T11:03:38;92101.38;;;15.50;61.01
17521;BME280;8878;-33.370;-70.552;2023-04-27T11:06:12;92104.03;;;15.50;60.87
17521;BME280;8878;-33.370;-70.552;2023-04-27T11:08:45;92100.31;;;15.51;61.03
17521;BME280;8878;-33.370;-70.552;2023-04-27T11:11:15;92105.16;;;15.77;60.42
17521;BME280;8878;-33.370;-70.552;2023-04-27T11:13:46;92118.75;;;15.75;60.69
17521;BME280;8878;-33.370;-70.552;2023-04-27T11:16:17;92128.16;;;15.95;59.57
17521;BME280;8878;-33.370;-70.552;2023-04-27T11:18:46;92136.38;;;15.71;61.18
17521;BME280;8878;-33.370;-70.552;2023-04-27T11:21:17;92142.16;;;15.87;60.54
17521;BME280;8878;-33.370;-70.552;2023-04-27T11:23:49;92147.50;;;15.59;61.74
17521;BME280;8878;-33.370;-70.552;2023-04-27T11:26:20;92157.66;;;15.71;62.45
17521;BME280;8878;-33.370;-70.552;2023-04-27T11:28:58;92159.03;;;15.69;62.32
17521;BME280;8878;-33.370;-70.552;2023-04-27T11:31:37;92157.25;;;15.78;61.93
17521;BME280;8878;-33.370;-70.552;2023-04-27T11:34:07;92160.28;;;15.85;61.62
17521;BME280;8878;-33.370;-70.552;2023-04-27T11:36:36;92163.66;;;16.04;61.22
17521;BME280;8878;-33.370;-70.552;2023-04-27T11:39:07;92159.28;;;16.08;61.09
17521;BME280;8878;-33.370;-70.552;2023-04-27T11:41:37;92149.53;;;16.17;60.76
17521;BME280;8878;-33.370;-70.552;2023-04-27T11:44:11;92140.16;;;16.06;60.49
17521;BME280;8878;-33.370;-70.552;2023-04-27T11:46:43;92130.84;;;15.81;61.23
17521;BME280;8878;-33.370;-70.552;2023-04-27T11:49:14;92129.06;;;15.90;60.68
17521;BME280;8878;-33.370;-70.552;2023-04-27T11:51:45;92120.41;;;15.98;59.61
17521;BME280;8878;-33.370;-70.552;2023-04-27T11:54:16;92124.19;;;16.06;58.95
17521;BME280;8878;-33.370;-70.552;2023-04-27T11:56:45;92120.44;;;16.07;58.65
17521;BME280;8878;-33.370;-70.552;2023-04-27T11:59:21;92120.28;;;16.03;58.67
17521;BME280;8878;-33.370;-70.552;2023-04-27T12:01:51;92127.59;;;16.20;58.74
17521;BME280;8878;-33.370;-70.552;2023-04-27T12:04:20;92135.50;;;16.25;58.94
17521;BME280;8878;-33.370;-70.552;2023-04-27T12:06:50;92131.97;;;16.16;59.20
17521;BME280;8878;-33.370;-70.552;2023-04-27T12:09:21;92138.28;;;16.06;59.15
17521;BME280;8878;-33.370;-70.552;2023-04-27T12:11:53;92134.31;;;16.31;58.49
17521;BME280;8878;-33.370;-70.552;2023-04-27T12:14:22;92132.09;;;16.11;59.89
17521;BME280;8878;-33.370;-70.552;2023-04-27T12:16:52;92144.47;;;15.66;61.59
17521;BME280;8878;-33.370;-70.552;2023-04-27T12:19:21;92137.44;;;15.56;62.28
17521;BME280;8878;-33.370;-70.552;2023-04-27T12:21:51;92138.53;;;15.83;61.75
17521;BME280;8878;-33.370;-70.552;2023-04-27T12:24:23;92137.25;;;16.30;60.48
17521;BME280;8878;-33.370;-70.552;2023-04-27T12:26:52;92125.78;;;16.43;59.82
17521;BME280;8878;-33.370;-70.552;2023-04-27T12:29:21;92130.09;;;16.53;60.46
17521;BME280;8878;-33.370;-70.552;2023-04-27T12:31:51;92122.88;;;16.31;60.17
17521;BME280;8878;-33.370;-70.552;2023-04-27T12:34:21;92118.75;;;16.61;59.76
17521;BME280;8878;-33.370;-70.552;2023-04-27T12:36:51;92111.47;;;16.75;59.44
17521;BME280;8878;-33.370;-70.552;2023-04-27T12:39:24;92105.81;;;16.54;60.27
17521;BME280;8878;-33.370;-70.552;2023-04-27T12:41:54;92090.75;;;16.72;59.87
17521;BME280;8878;-33.370;-70.552;2023-04-27T12:44:25;92082.28;;;16.70;60.16
17521;BME280;8878;-33.370;-70.552;2023-04-27T12:46:55;92084.25;;;16.87;59.67
17521;BME280;8878;-33.370;-70.552;2023-04-27T12:49:27;92070.31;;;17.20;58.66
17521;BME280;8878;-33.370;-70.552;2023-04-27T12:51:56;92062.72;;;17.45;57.92
17521;BME280;8878;-33.370;-70.552;2023-04-27T12:54:27;92062.25;;;17.43;57.21
17521;BME280;8878;-33.370;-70.552;2023-04-27T12:56:56;92058.97;;;17.46;56.50